createdAt,value
2017-06-02T00:02:16.700Z,6.22
2017-06-02T00:04:44.564Z,5.94
2017-06-02T00:07:12.430Z,5.64
2017-06-02T00:09:40.334Z,5.86
2017-06-02T00:12:08.205Z,5.26
2017-06-02T00:14:36.077Z,5.94
2017-06-02T00:17:04.234Z,6.16
2017-06-02T00:19:32.102Z,6.28
2017-06-02T00:21:59.989Z,5.64
2017-06-02T00:24:27.885Z,5.66
2017-06-02T00:26:55.757Z,6.06
2017-06-02T00:29:23.649Z,5.86
2017-06-02T00:31:51.640Z,6.12
2017-06-02T00:34:19.118Z,5.92
2017-06-02T00:36:46.990Z,6.06
2017-06-02T00:39:15.062Z,6.26
2017-06-02T00:41:42.928Z,6.64
2017-06-02T00:44:10.793Z,6.86
2017-06-02T00:46:38.714Z,6.98
2017-06-02T00:49:06.190Z,6.76
2017-06-02T00:51:34.080Z,7.08
2017-06-02T00:54:02.082Z,6.56
2017-06-02T00:56:29.558Z,6.04
2017-06-02T00:58:57.440Z,6.30
2017-06-02T01:01:24.953Z,6.02
2017-06-02T01:03:52.816Z,6.24
2017-06-02T01:06:20.285Z,6.10
2017-06-02T01:08:48.198Z,5.98
2017-06-02T01:11:16.081Z,6.62
2017-06-02T01:13:43.949Z,6.48
2017-06-02T01:16:11.832Z,6.06
2017-06-02T01:18:39.697Z,6.16
2017-06-02T01:21:07.565Z,6.12
2017-06-02T01:23:35.805Z,5.94
2017-06-02T01:26:03.673Z,6.38
2017-06-02T01:28:31.552Z,6.28
2017-06-02T01:30:59.462Z,5.86
2017-06-02T01:33:27.346Z,5.64
2017-06-02T01:35:55.214Z,5.80
2017-06-02T01:38:23.106Z,6.00
2017-06-02T01:40:50.993Z,6.28
2017-06-02T01:43:18.871Z,6.36
2017-06-02T01:45:46.795Z,6.30
2017-06-02T01:48:14.674Z,5.72
2017-06-02T01:50:42.557Z,5.72
2017-06-02T01:53:10.474Z,5.22
2017-06-02T01:55:38.348Z,5.84
2017-06-02T01:58:06.222Z,5.52
2017-06-02T02:00:34.118Z,5.94
2017-06-02T02:03:02.001Z,6.38
2017-06-02T02:05:29.870Z,5.40
2017-06-02T02:07:57.765Z,5.88
2017-06-02T02:10:25.641Z,6.08
2017-06-02T02:12:53.505Z,5.60
2017-06-02T02:15:21.400Z,5.90
2017-06-02T02:17:48.873Z,5.98
2017-06-02T02:20:16.708Z,6.06
2017-06-02T02:22:44.188Z,6.02
2017-06-02T02:25:12.292Z,6.12
2017-06-02T02:27:40.132Z,6.32
2017-06-02T02:30:08.094Z,6.52
2017-06-02T02:32:35.544Z,6.40
2017-06-02T02:35:03.380Z,5.88
2017-06-02T02:37:31.344Z,6.64
2017-06-02T02:39:59.194Z,6.40
2017-06-02T02:42:27.027Z,5.88
2017-06-02T02:44:54.888Z,5.82
2017-06-02T02:47:22.736Z,6.70
2017-06-02T02:49:50.587Z,16.44
2017-06-02T02:52:18.160Z,11.48
2017-06-02T02:54:46.004Z,7.90
2017-06-02T02:57:13.447Z,8.10
2017-06-02T02:59:41.493Z,7.48
2017-06-02T03:02:08.941Z,6.48
2017-06-02T03:04:36.788Z,8.64
2017-06-02T03:07:05.267Z,7.98
2017-06-02T03:09:33.108Z,8.82
2017-06-02T03:12:00.947Z,8.08
2017-06-02T03:14:28.867Z,10.00
2017-06-02T03:16:56.319Z,10.78
2017-06-02T03:19:24.168Z,10.54
2017-06-02T03:21:52.253Z,10.70
2017-06-02T03:24:20.100Z,10.12
2017-06-02T03:26:47.952Z,10.02
2017-06-02T03:29:15.515Z,14.02
2017-06-02T03:31:43.359Z,11.42
2017-06-02T03:34:11.212Z,14.00
2017-06-02T03:36:39.032Z,10.94
2017-06-02T03:39:06.879Z,10.42
2017-06-02T03:41:34.730Z,12.76
2017-06-02T03:44:02.205Z,18.68
2017-06-02T03:46:30.052Z,10.98
2017-06-02T03:48:57.896Z,9.42
2017-06-02T03:51:25.372Z,9.48
2017-06-02T03:53:53.215Z,9.50
2017-06-02T03:56:21.063Z,9.94
2017-06-02T03:58:48.545Z,9.92
2017-06-02T04:01:16.383Z,9.76
2017-06-02T04:03:43.840Z,9.88
2017-06-02T04:06:11.709Z,10.78
2017-06-02T04:08:39.551Z,10.44
2017-06-02T04:11:07.391Z,9.06
2017-06-02T04:13:35.261Z,10.60
2017-06-02T04:16:03.108Z,9.56
2017-06-02T04:18:30.959Z,10.16
2017-06-02T04:20:58.827Z,9.42
2017-06-02T04:23:26.671Z,8.84
2017-06-02T04:25:54.520Z,8.92
2017-06-02T04:28:22.399Z,8.96
2017-06-02T04:30:50.242Z,9.58
2017-06-02T04:33:18.085Z,8.46
2017-06-02T04:35:45.559Z,8.74
2017-06-02T04:38:13.404Z,9.58
2017-06-02T04:40:41.244Z,8.56
2017-06-02T04:43:09.108Z,8.90
2017-06-02T04:45:36.960Z,9.22
2017-06-02T04:48:04.799Z,8.80
2017-06-02T04:50:32.672Z,8.14
2017-06-02T04:53:00.521Z,8.30
2017-06-02T04:55:27.965Z,7.12
2017-06-02T04:57:55.424Z,7.66
2017-06-02T05:00:23.272Z,6.66
2017-06-02T05:02:51.123Z,7.64
2017-06-02T05:05:19.083Z,7.74
2017-06-02T05:07:46.928Z,6.90
2017-06-02T05:10:14.781Z,32.24
2017-06-02T05:12:42.640Z,13.60
2017-06-02T05:15:10.321Z,7.06
2017-06-02T05:17:37.752Z,5.88
2017-06-02T05:20:05.632Z,5.58
2017-06-02T05:22:33.482Z,5.90
2017-06-02T05:25:01.360Z,6.10
2017-06-02T05:27:28.920Z,7.30
2017-06-02T05:29:56.763Z,4.96
2017-06-02T05:32:24.609Z,5.36
2017-06-02T05:34:52.755Z,5.76
2017-06-02T05:37:20.588Z,5.50
2017-06-02T05:39:48.441Z,5.38
2017-06-02T05:42:16.291Z,6.70
2017-06-02T05:44:44.144Z,13.36
2017-06-02T05:47:11.993Z,12.48
2017-06-02T05:49:39.871Z,11.50
2017-06-02T05:52:07.719Z,5.86
2017-06-02T05:54:35.564Z,5.02
2017-06-02T05:57:03.627Z,6.16
2017-06-02T05:59:31.472Z,3.92
2017-06-02T06:01:59.324Z,3.12
2017-06-02T06:04:27.202Z,3.04
2017-06-02T06:06:55.040Z,3.40
2017-06-02T06:09:22.886Z,3.32
2017-06-02T06:11:50.752Z,3.38
2017-06-02T06:14:18.610Z,3.44
2017-06-02T06:16:46.456Z,3.30
2017-06-02T06:19:14.612Z,3.34
2017-06-02T06:21:42.472Z,4.78
2017-06-02T06:24:09.924Z,14.94
2017-06-02T06:26:37.799Z,17.08
2017-06-02T06:29:05.840Z,16.10
2017-06-02T06:31:33.680Z,4.78
2017-06-02T06:34:01.559Z,3.78
2017-06-02T06:36:29.399Z,3.40
2017-06-02T06:38:57.247Z,3.38
2017-06-02T06:41:25.272Z,3.36
2017-06-02T06:43:53.116Z,3.80
2017-06-02T06:46:20.559Z,3.62
2017-06-02T06:48:48.374Z,4.20
2017-06-02T06:51:16.469Z,3.62
2017-06-02T06:53:44.411Z,3.30
2017-06-02T06:56:12.316Z,3.30
2017-06-02T06:58:40.531Z,3.80
2017-06-02T07:01:08.570Z,3.58
2017-06-02T07:03:36.416Z,3.68
2017-06-02T07:06:03.859Z,3.46
2017-06-02T07:08:31.707Z,6.98
2017-06-02T07:10:59.584Z,6.66
2017-06-02T07:13:27.445Z,3.24
2017-06-02T07:15:55.300Z,3.20
2017-06-02T07:18:23.260Z,2.84
2017-06-02T07:20:51.104Z,3.02
2017-06-02T07:23:18.945Z,2.60
2017-06-02T07:25:47.063Z,2.28
2017-06-02T07:28:16.288Z,2.50
2017-06-02T07:30:44.121Z,2.40
2017-06-02T07:33:12.196Z,2.58
2017-06-02T07:35:40.050Z,2.14
2017-06-02T07:38:07.903Z,2.46
2017-06-02T07:40:35.769Z,2.98
2017-06-02T07:43:03.220Z,2.00
2017-06-02T07:45:31.067Z,2.46
2017-06-02T07:47:58.958Z,2.46
2017-06-02T07:50:26.815Z,3.08
2017-06-02T07:52:54.716Z,2.40
2017-06-02T07:55:22.835Z,2.52
2017-06-02T07:57:50.678Z,2.20
2017-06-02T08:00:18.530Z,3.08
2017-06-02T08:02:46.404Z,2.30
2017-06-02T08:05:14.258Z,2.12
2017-06-02T08:07:42.090Z,2.14
2017-06-02T08:10:09.951Z,2.10
2017-06-02T08:12:37.790Z,2.40
2017-06-02T08:15:05.628Z,2.30
2017-06-02T08:17:33.506Z,2.34
2017-06-02T08:20:01.372Z,2.12
2017-06-02T08:22:28.822Z,2.48
2017-06-02T08:24:56.726Z,2.36
2017-06-02T08:27:24.167Z,2.34
2017-06-02T08:29:52.013Z,2.34
2017-06-02T08:32:19.907Z,2.16
2017-06-02T08:34:47.763Z,2.28
2017-06-02T08:37:15.599Z,2.22
2017-06-02T08:39:43.722Z,2.40
2017-06-02T08:42:11.577Z,2.00
2017-06-02T08:44:39.042Z,2.08
2017-06-02T08:47:07.207Z,2.40
2017-06-02T08:49:35.052Z,2.28
2017-06-02T08:52:02.503Z,1.88
2017-06-02T08:54:30.315Z,2.32
2017-06-02T08:56:58.170Z,2.40
2017-06-02T08:59:25.615Z,2.00
2017-06-02T09:01:53.473Z,2.12
2017-06-02T09:04:21.324Z,2.10
2017-06-02T09:06:49.186Z,2.48
2017-06-02T09:09:17.061Z,2.42
2017-06-02T09:11:44.918Z,2.10
2017-06-02T09:14:12.786Z,2.00
2017-06-02T09:16:40.883Z,2.24
2017-06-02T09:19:08.739Z,2.04
2017-06-02T09:21:36.753Z,2.06
2017-06-02T09:24:04.813Z,2.00
2017-06-02T09:26:32.666Z,1.90
2017-06-02T09:29:00.516Z,2.10
2017-06-02T09:31:28.672Z,1.90
2017-06-02T09:33:56.541Z,1.62
2017-06-02T09:36:24.399Z,1.98
2017-06-02T09:38:52.525Z,1.70
2017-06-02T09:41:19.916Z,1.88
2017-06-02T09:43:47.757Z,1.94
2017-06-02T09:46:15.873Z,1.80
2017-06-02T09:48:43.738Z,1.96
2017-06-02T09:51:11.180Z,1.86
2017-06-02T09:53:39.135Z,2.28
2017-06-02T09:56:06.982Z,2.00
2017-06-02T09:58:34.824Z,2.16
2017-06-02T10:01:02.307Z,1.90
2017-06-02T10:03:30.149Z,1.84
2017-06-02T10:05:57.991Z,1.80
2017-06-02T10:08:26.127Z,2.36
2017-06-02T10:10:53.572Z,1.88
2017-06-02T10:13:21.422Z,2.00
2017-06-02T10:15:49.120Z,1.72
2017-06-02T10:18:16.571Z,2.06
2017-06-02T10:20:44.426Z,1.94
2017-06-02T10:23:12.581Z,2.18
2017-06-02T10:25:40.443Z,1.90
2017-06-02T10:28:07.907Z,1.80
2017-06-02T10:30:35.790Z,1.98
2017-06-02T10:33:03.641Z,2.30
2017-06-02T10:35:31.107Z,2.42
2017-06-02T10:37:59.290Z,2.10
2017-06-02T10:40:27.127Z,2.44
2017-06-02T10:42:54.973Z,2.52
2017-06-02T10:45:22.854Z,1.84
2017-06-02T10:47:50.714Z,2.20
2017-06-02T10:50:18.556Z,2.76
2017-06-02T10:52:46.530Z,2.78
2017-06-02T10:55:14.382Z,2.34
2017-06-02T10:57:42.242Z,2.30
2017-06-02T11:00:10.065Z,2.40
2017-06-02T11:02:37.903Z,2.32
2017-06-02T11:05:05.748Z,2.40
2017-06-02T11:07:33.959Z,2.64
2017-06-02T11:10:01.823Z,2.20
2017-06-02T11:12:29.280Z,2.48
2017-06-02T11:14:57.138Z,2.50
2017-06-02T11:17:24.599Z,2.22
2017-06-02T11:19:52.440Z,2.30
2017-06-02T11:22:20.553Z,2.32
2017-06-02T11:24:48.002Z,2.60
2017-06-02T11:27:15.844Z,2.62
2017-06-02T11:29:43.725Z,2.96
2017-06-02T11:32:11.573Z,2.94
2017-06-02T11:34:39.411Z,2.78
2017-06-02T11:37:07.287Z,2.36
2017-06-02T11:39:35.127Z,2.50
2017-06-02T11:42:02.971Z,2.72
2017-06-02T11:44:32.005Z,2.50
2017-06-02T11:46:59.849Z,2.40
2017-06-02T11:49:27.689Z,2.48
2017-06-02T11:51:55.565Z,2.78
2017-06-02T11:54:23.009Z,2.38
2017-06-02T11:56:50.866Z,2.40
2017-06-02T11:59:19.012Z,2.80
2017-06-02T12:01:46.471Z,2.50
2017-06-02T12:04:14.311Z,2.76
2017-06-02T12:06:42.403Z,3.28
2017-06-02T12:09:10.270Z,2.34
2017-06-02T12:11:38.135Z,2.62
2017-06-02T12:14:06.012Z,2.46
2017-06-02T12:16:33.857Z,2.90
2017-06-02T12:19:01.696Z,2.58
2017-06-02T12:21:29.570Z,2.52
2017-06-02T12:23:57.032Z,2.60
2017-06-02T12:26:24.902Z,5.44
2017-06-02T12:28:52.770Z,2.90
2017-06-02T12:31:20.609Z,3.50
2017-06-02T12:33:48.055Z,2.50
2017-06-02T12:36:15.948Z,2.54
2017-06-02T12:38:43.811Z,2.26
2017-06-02T12:41:11.670Z,2.52
2017-06-02T12:43:40.272Z,2.64
2017-06-02T12:46:07.728Z,2.94
2017-06-02T12:48:35.598Z,2.38
2017-06-02T12:51:04.320Z,2.45
2017-06-02T12:53:32.159Z,2.50
2017-06-02T12:56:00.011Z,2.53
2017-06-02T12:58:27.887Z,2.48
2017-06-02T13:00:55.736Z,2.77
2017-06-02T13:03:23.598Z,2.63
2017-06-02T13:05:51.667Z,2.45
2017-06-02T13:08:20.019Z,2.52
2017-06-02T13:10:47.866Z,3.12
2017-06-02T13:13:16.085Z,3.12
2017-06-02T13:15:43.932Z,2.57
2017-06-02T13:18:11.385Z,2.62
2017-06-02T13:20:39.471Z,3.10
2017-06-02T13:23:07.324Z,2.62
2017-06-02T13:25:35.186Z,2.50
2017-06-02T13:28:03.390Z,2.78
2017-06-02T13:30:31.254Z,2.53
2017-06-02T13:32:59.115Z,3.32
2017-06-02T13:35:27.279Z,2.73
2017-06-02T13:37:55.119Z,2.87
2017-06-02T13:40:22.979Z,2.40
2017-06-02T13:42:51.186Z,2.87
2017-06-02T13:45:18.658Z,2.60
2017-06-02T13:47:46.491Z,2.66
2017-06-02T13:50:14.683Z,2.62
2017-06-02T13:52:42.148Z,2.78
2017-06-02T13:55:09.997Z,2.84
2017-06-02T13:57:37.908Z,5.12
2017-06-02T14:00:05.751Z,4.70
2017-06-02T14:02:33.599Z,3.28
2017-06-02T14:05:01.075Z,8.66
2017-06-02T14:07:28.945Z,3.04
2017-06-02T14:09:56.392Z,6.66
2017-06-02T14:12:23.894Z,2.86
2017-06-02T14:14:51.758Z,2.88
2017-06-02T14:17:19.616Z,2.90
2017-06-02T14:19:47.819Z,2.58
2017-06-02T14:22:15.668Z,2.78
2017-06-02T14:24:43.137Z,5.78
2017-06-02T14:27:11.364Z,3.58
2017-06-02T14:29:39.206Z,3.00
2017-06-02T14:32:07.075Z,2.90
2017-06-02T14:34:34.567Z,2.46
2017-06-02T14:37:02.408Z,2.58
2017-06-02T14:39:30.268Z,3.32
2017-06-02T14:41:58.410Z,2.48
2017-06-02T14:44:25.856Z,3.00
2017-06-02T14:46:53.307Z,2.76
2017-06-02T14:49:21.169Z,2.16
2017-06-02T14:51:49.021Z,2.78
2017-06-02T14:54:16.873Z,2.10
2017-06-02T14:56:44.760Z,2.48
2017-06-02T14:59:12.625Z,2.54
2017-06-02T15:01:40.486Z,2.60
2017-06-02T15:04:08.369Z,2.70
2017-06-02T15:06:35.816Z,3.86
2017-06-02T15:09:03.660Z,2.44
2017-06-02T15:11:31.522Z,2.92
2017-06-02T15:13:59.385Z,2.94
2017-06-02T15:16:27.235Z,2.52
2017-06-02T15:18:54.731Z,2.66
2017-06-02T15:21:22.590Z,2.72
2017-06-02T15:23:50.734Z,4.80
2017-06-02T15:26:18.936Z,2.90
2017-06-02T15:28:46.389Z,2.94
2017-06-02T15:31:14.248Z,3.94
2017-06-02T15:33:42.120Z,14.58
2017-06-02T15:36:09.589Z,4.38
2017-06-02T15:38:37.451Z,8.72
2017-06-02T15:41:05.422Z,5.76
2017-06-02T15:43:33.286Z,5.60
2017-06-02T15:46:00.750Z,3.10
2017-06-02T15:48:28.620Z,2.86
2017-06-02T15:50:56.090Z,6.60
2017-06-02T15:53:23.935Z,4.12
2017-06-02T15:55:51.797Z,3.58
2017-06-02T15:58:19.659Z,2.70
2017-06-02T16:00:47.510Z,3.52
2017-06-02T16:03:15.372Z,2.90
2017-06-02T16:05:43.219Z,4.46
2017-06-02T16:08:11.064Z,7.54
2017-06-02T16:10:39.657Z,2.60
2017-06-02T16:13:07.512Z,2.78
2017-06-02T16:15:35.357Z,2.96
2017-06-02T16:18:03.769Z,2.20
2017-06-02T16:20:31.618Z,2.78
2017-06-02T16:22:59.474Z,2.40
2017-06-02T16:25:27.463Z,2.58
2017-06-02T16:27:55.316Z,3.24
2017-06-02T16:30:23.161Z,3.26
2017-06-02T16:32:50.657Z,2.20
2017-06-02T16:35:18.105Z,2.26
2017-06-02T16:37:45.957Z,2.58
2017-06-02T16:40:14.155Z,2.58
2017-06-02T16:42:42.013Z,2.58
2017-06-02T16:45:09.864Z,2.22
2017-06-02T16:47:38.052Z,3.24
2017-06-02T16:50:05.896Z,2.50
2017-06-02T16:52:33.767Z,2.22
2017-06-02T16:55:01.673Z,1.92
2017-06-02T16:57:29.526Z,2.12
2017-06-02T16:59:57.370Z,1.90
2017-06-02T17:02:25.256Z,1.98
2017-06-02T17:04:53.119Z,2.30
2017-06-02T17:07:20.580Z,2.30
2017-06-02T17:09:48.761Z,2.52
2017-06-02T17:12:16.611Z,2.10
2017-06-02T17:14:44.453Z,1.68
2017-06-02T17:17:12.328Z,2.02
2017-06-02T17:19:40.172Z,1.88
2017-06-02T17:22:07.636Z,3.86
2017-06-02T17:24:36.063Z,2.30
2017-06-02T17:27:03.522Z,4.26
2017-06-02T17:29:31.838Z,2.46
2017-06-02T17:32:00.032Z,3.12
2017-06-02T17:34:27.822Z,4.36
2017-06-02T17:36:55.944Z,2.58
2017-06-02T17:39:23.986Z,2.96
2017-06-02T17:41:51.832Z,1.90
2017-06-02T17:44:19.721Z,1.96
2017-06-02T17:46:47.619Z,3.08
2017-06-02T17:49:15.475Z,8.40
2017-06-02T17:51:43.349Z,2.14
2017-06-02T17:54:11.226Z,2.12
2017-06-02T17:56:38.677Z,2.34
2017-06-02T17:59:06.528Z,2.18
2017-06-02T18:01:34.412Z,1.92
2017-06-02T18:04:02.258Z,1.76
2017-06-02T18:06:30.110Z,2.56
2017-06-02T18:08:58.086Z,1.56
2017-06-02T18:11:26.039Z,1.58
2017-06-02T18:13:53.493Z,2.06
2017-06-02T18:16:21.064Z,1.90
2017-06-02T18:18:48.915Z,2.08
2017-06-02T18:21:16.776Z,1.72
2017-06-02T18:23:45.211Z,2.06
2017-06-02T18:26:12.705Z,1.96
2017-06-02T18:28:40.557Z,1.90
2017-06-02T18:31:08.593Z,2.40
2017-06-02T18:33:36.648Z,2.20
2017-06-02T18:36:04.522Z,2.80
2017-06-02T18:38:32.111Z,10.04
2017-06-02T18:40:59.991Z,3.10
2017-06-02T18:43:27.867Z,2.30
2017-06-02T18:45:55.997Z,2.62
2017-06-02T18:48:23.543Z,2.02
2017-06-02T18:50:51.473Z,2.76
2017-06-02T18:53:19.579Z,2.62
2017-06-02T18:55:48.066Z,3.00
2017-06-02T18:58:16.290Z,3.38
2017-06-02T19:00:44.189Z,2.60
2017-06-02T19:03:12.522Z,2.38
2017-06-02T19:05:41.041Z,2.62
2017-06-02T19:08:10.346Z,2.68
2017-06-02T19:10:39.068Z,2.24
2017-06-02T19:13:07.819Z,2.22
2017-06-02T19:15:36.781Z,2.28
2017-06-02T19:18:05.287Z,2.56
2017-06-02T19:20:34.251Z,3.70
2017-06-02T19:23:03.583Z,2.68
2017-06-02T19:25:32.799Z,3.10
2017-06-02T19:28:01.634Z,2.76
2017-06-02T19:30:30.504Z,3.52
2017-06-02T19:32:59.461Z,3.44
2017-06-02T19:35:28.374Z,2.90
2017-06-02T19:37:58.198Z,2.92
2017-06-02T19:40:28.532Z,3.62
2017-06-02T19:42:57.481Z,2.30
2017-06-02T19:45:27.679Z,3.46
2017-06-02T19:47:57.586Z,2.50
2017-06-02T19:50:26.628Z,3.66
2017-06-02T19:52:55.896Z,4.16
2017-06-02T19:55:24.768Z,2.58
2017-06-02T19:57:55.194Z,4.08
2017-06-02T20:00:24.288Z,2.88
2017-06-02T20:02:56.236Z,5.10
2017-06-02T20:05:25.758Z,3.00
2017-06-02T20:07:55.195Z,2.82
2017-06-02T20:10:24.400Z,3.46
2017-06-02T20:12:53.262Z,11.54
2017-06-02T20:15:22.416Z,4.02
2017-06-02T20:17:52.202Z,3.50
2017-06-02T20:20:21.537Z,3.70
2017-06-02T20:22:50.386Z,4.20
2017-06-02T20:25:19.516Z,4.04
2017-06-02T20:27:47.917Z,4.74
2017-06-02T20:30:16.775Z,4.24
2017-06-02T20:32:45.971Z,4.88
2017-06-02T20:35:15.255Z,4.32
2017-06-02T20:37:44.271Z,4.62
2017-06-02T20:40:13.170Z,4.66
2017-06-02T20:42:42.732Z,5.32
2017-06-02T20:45:11.533Z,4.74
2017-06-02T20:47:55.613Z,5.32
2017-06-02T20:50:26.022Z,4.72
2017-06-02T20:52:55.793Z,4.90
2017-06-02T20:55:25.562Z,6.50
2017-06-02T20:57:54.416Z,6.82
2017-06-02T21:00:22.757Z,5.30
2017-06-02T21:02:52.164Z,5.14
2017-06-02T21:05:20.317Z,5.20
2017-06-02T21:07:50.731Z,5.42
2017-06-02T21:10:19.105Z,5.72
2017-06-02T21:12:47.286Z,7.18
2017-06-02T21:15:15.274Z,6.20
2017-06-02T21:17:43.509Z,5.34
2017-06-02T21:20:12.608Z,5.72
2017-06-02T21:22:40.984Z,6.18
2017-06-02T21:25:09.611Z,6.26
2017-06-02T21:27:37.847Z,6.28
2017-06-02T21:30:05.748Z,6.22
2017-06-02T21:32:33.673Z,6.12
2017-06-02T21:35:01.542Z,7.18
2017-06-02T21:37:29.388Z,6.14
2017-06-02T21:39:57.260Z,5.76
2017-06-02T21:42:25.751Z,6.06
2017-06-02T21:44:53.608Z,6.12
2017-06-02T21:47:21.749Z,6.18
2017-06-02T21:49:49.992Z,6.40
2017-06-02T21:52:17.446Z,6.34
2017-06-02T21:54:45.773Z,6.20
2017-06-02T21:57:13.631Z,6.16
2017-06-02T21:59:41.077Z,5.62
2017-06-02T22:02:08.949Z,6.00
2017-06-02T22:04:36.815Z,5.92
2017-06-02T22:07:05.575Z,5.84
2017-06-02T22:09:33.444Z,6.08
2017-06-02T22:12:00.895Z,6.18
2017-06-02T22:14:29.247Z,6.18
2017-06-02T22:16:57.130Z,6.46
2017-06-02T22:19:24.990Z,6.58
2017-06-02T22:21:52.857Z,7.08
2017-06-02T22:24:20.731Z,6.40
2017-06-02T22:26:48.840Z,6.44
2017-06-02T22:29:16.683Z,5.40
2017-06-02T22:31:44.855Z,6.70
2017-06-02T22:34:13.325Z,6.80
2017-06-02T22:36:41.182Z,6.32
